sensor_id;sensor_type;location;lat;lon;timestamp;P1;durP1;ratioP1;P2;durP2;ratioP2
55082;SDS011;40978;52.850;6.506;2022-09-28T00:02:03;10.43;;;8.70;;
55082;SDS011;40978;52.850;6.506;2022-09-28T00:04:29;10.85;;;8.82;;
55082;SDS011;40978;52.850;6.506;2022-09-28T00:06:55;10.38;;;9.27;;
55082;SDS011;40978;52.850;6.506;2022-09-28T00:09:20;15.02;;;10.35;;
55082;SDS011;40978;52.850;6.506;2022-09-28T00:11:46;12.60;;;10.43;;
55082;SDS011;40978;52.850;6.506;2022-09-28T00:14:12;16.33;;;10.35;;
55082;SDS011;40978;52.850;6.506;2022-09-28T00:16:42;14.57;;;11.00;;
55082;SDS011;40978;52.850;6.506;2022-09-28T00:19:08;15.32;;;12.00;;
55082;SDS011;40978;52.850;6.506;2022-09-28T00:21:36;14.70;;;12.00;;
55082;SDS011;40978;52.850;6.506;2022-09-28T00:24:03;12.35;;;11.02;;
55082;SDS011;40978;52.850;6.506;2022-09-28T00:26:37;16.35;;;11.45;;
55082;SDS011;40978;52.850;6.506;2022-09-28T00:29:05;16.15;;;12.43;;
55082;SDS011;40978;52.850;6.506;2022-09-28T00:31:32;17.70;;;13.68;;
55082;SDS011;40978;52.850;6.506;2022-09-28T00:33:59;18.30;;;12.43;;
55082;SDS011;40978;52.850;6.506;2022-09-28T00:36:26;15.82;;;12.90;;
55082;SDS011;40978;52.850;6.506;2022-09-28T00:38:53;16.77;;;13.07;;
55082;SDS011;40978;52.850;6.506;2022-09-28T00:41:21;17.52;;;12.63;;
55082;SDS011;40978;52.850;6.506;2022-09-28T00:43:47;18.67;;;14.32;;
55082;SDS011;40978;52.850;6.506;2022-09-28T00:48:44;19.85;;;14.95;;
55082;SDS011;40978;52.850;6.506;2022-09-28T00:51:22;18.50;;;13.50;;
55082;SDS011;40978;52.850;6.506;2022-09-28T00:53:50;17.08;;;13.85;;
55082;SDS011;40978;52.850;6.506;2022-09-28T00:56:17;16.73;;;14.20;;
55082;SDS011;40978;52.850;6.506;2022-09-28T00:58:46;17.73;;;14.10;;
55082;SDS011;40978;52.850;6.506;2022-09-28T01:01:15;18.73;;;15.60;;
55082;SDS011;40978;52.850;6.506;2022-09-28T01:03:41;21.10;;;15.30;;
55082;SDS011;40978;52.850;6.506;2022-09-28T01:06:10;19.35;;;15.57;;
55082;SDS011;40978;52.850;6.506;2022-09-28T01:08:41;27.52;;;15.82;;
55082;SDS011;40978;52.850;6.506;2022-09-28T01:11:09;21.52;;;16.08;;
55082;SDS011;40978;52.850;6.506;2022-09-28T01:13:35;22.55;;;15.23;;
55082;SDS011;40978;52.850;6.506;2022-09-28T01:18:44;25.58;;;16.05;;
55082;SDS011;40978;52.850;6.506;2022-09-28T01:23:42;20.08;;;15.68;;
55082;SDS011;40978;52.850;6.506;2022-09-28T01:31:43;19.45;;;15.13;;
55082;SDS011;40978;52.850;6.506;2022-09-28T01:34:15;19.83;;;15.18;;
55082;SDS011;40978;52.850;6.506;2022-09-28T01:36:50;21.42;;;16.08;;
55082;SDS011;40978;52.850;6.506;2022-09-28T01:39:25;23.23;;;15.18;;
55082;SDS011;40978;52.850;6.506;2022-09-28T01:42:12;23.90;;;16.27;;
55082;SDS011;40978;52.850;6.506;2022-09-28T01:44:44;18.52;;;14.95;;
55082;SDS011;40978;52.850;6.506;2022-09-28T01:47:14;21.80;;;15.38;;
55082;SDS011;40978;52.850;6.506;2022-09-28T01:50:27;16.42;;;13.65;;
55082;SDS011;40978;52.850;6.506;2022-09-28T01:52:49;18.27;;;15.68;;
55082;SDS011;40978;52.850;6.506;2022-09-28T01:58:17;16.98;;;13.73;;
55082;SDS011;40978;52.850;6.506;2022-09-28T02:00:55;18.05;;;13.98;;
55082;SDS011;40978;52.850;6.506;2022-09-28T02:03:40;17.42;;;14.13;;
55082;SDS011;40978;52.850;6.506;2022-09-28T02:06:15;17.40;;;14.18;;
55082;SDS011;40978;52.850;6.506;2022-09-28T02:08:51;17.60;;;14.63;;
55082;SDS011;40978;52.850;6.506;2022-09-28T02:11:24;17.43;;;14.53;;
55082;SDS011;40978;52.850;6.506;2022-09-28T02:13:53;17.08;;;14.85;;
55082;SDS011;40978;52.850;6.506;2022-09-28T02:16:30;25.27;;;17.27;;
55082;SDS011;40978;52.850;6.506;2022-09-28T02:19:26;37.22;;;21.52;;
55082;SDS011;40978;52.850;6.506;2022-09-28T02:21:58;80.97;;;21.58;;
55082;SDS011;40978;52.850;6.506;2022-09-28T02:27:32;34.15;;;21.77;;
55082;SDS011;40978;52.850;6.506;2022-09-28T02:30:12;63.33;;;23.45;;
55082;SDS011;40978;52.850;6.506;2022-09-28T02:32:39;46.05;;;20.73;;
55082;SDS011;40978;52.850;6.506;2022-09-28T02:35:10;34.65;;;21.27;;
55082;SDS011;40978;52.850;6.506;2022-09-28T02:37:38;53.85;;;21.75;;
55082;SDS011;40978;52.850;6.506;2022-09-28T02:40:11;45.67;;;20.77;;
55082;SDS011;40978;52.850;6.506;2022-09-28T02:42:51;35.95;;;21.42;;
55082;SDS011;40978;52.850;6.506;2022-09-28T02:45:33;27.98;;;20.90;;
55082;SDS011;40978;52.850;6.506;2022-09-28T02:48:16;107.97;;;21.25;;
55082;SDS011;40978;52.850;6.506;2022-09-28T03:01:49;111.93;;;22.70;;
55082;SDS011;40978;52.850;6.506;2022-09-28T03:04:56;259.27;;;34.60;;
55082;SDS011;40978;52.850;6.506;2022-09-28T03:07:40;256.00;;;35.45;;
55082;SDS011;40978;52.850;6.506;2022-09-28T03:10:24;34.05;;;20.55;;
55082;SDS011;40978;52.850;6.506;2022-09-28T03:12:57;49.33;;;18.75;;
55082;SDS011;40978;52.850;6.506;2022-09-28T03:15:25;40.78;;;19.70;;
55082;SDS011;40978;52.850;6.506;2022-09-28T03:17:53;75.43;;;20.52;;
55082;SDS011;40978;52.850;6.506;2022-09-28T03:20:20;52.53;;;18.55;;
55082;SDS011;40978;52.850;6.506;2022-09-28T03:22:46;27.42;;;18.38;;
55082;SDS011;40978;52.850;6.506;2022-09-28T03:25:12;25.30;;;18.15;;
55082;SDS011;40978;52.850;6.506;2022-09-28T03:27:39;45.33;;;20.98;;
55082;SDS011;40978;52.850;6.506;2022-09-28T03:30:05;34.10;;;20.65;;
55082;SDS011;40978;52.850;6.506;2022-09-28T03:32:31;41.05;;;20.98;;
55082;SDS011;40978;52.850;6.506;2022-09-28T03:34:57;31.95;;;20.92;;
55082;SDS011;40978;52.850;6.506;2022-09-28T03:37:23;87.80;;;22.83;;
55082;SDS011;40978;52.850;6.506;2022-09-28T03:39:48;114.05;;;26.02;;
55082;SDS011;40978;52.850;6.506;2022-09-28T03:42:14;68.60;;;21.13;;
55082;SDS011;40978;52.850;6.506;2022-09-28T03:44:40;51.03;;;22.27;;
55082;SDS011;40978;52.850;6.506;2022-09-28T03:47:06;36.00;;;21.00;;
55082;SDS011;40978;52.850;6.506;2022-09-28T03:49:32;49.70;;;20.65;;
55082;SDS011;40978;52.850;6.506;2022-09-28T03:51:58;50.00;;;22.05;;
55082;SDS011;40978;52.850;6.506;2022-09-28T03:54:23;218.30;;;31.80;;
55082;SDS011;40978;52.850;6.506;2022-09-28T03:56:49;87.07;;;23.00;;
55082;SDS011;40978;52.850;6.506;2022-09-28T03:59:16;35.60;;;19.52;;
55082;SDS011;40978;52.850;6.506;2022-09-28T04:01:42;43.30;;;20.50;;
55082;SDS011;40978;52.850;6.506;2022-09-28T04:04:10;28.75;;;19.30;;
55082;SDS011;40978;52.850;6.506;2022-09-28T04:06:36;79.75;;;24.58;;
55082;SDS011;40978;52.850;6.506;2022-09-28T04:09:02;78.05;;;23.98;;
55082;SDS011;40978;52.850;6.506;2022-09-28T04:11:28;42.03;;;20.08;;
55082;SDS011;40978;52.850;6.506;2022-09-28T04:13:54;113.10;;;26.38;;
55082;SDS011;40978;52.850;6.506;2022-09-28T04:16:19;114.90;;;20.55;;
55082;SDS011;40978;52.850;6.506;2022-09-28T04:18:45;122.80;;;24.20;;
55082;SDS011;40978;52.850;6.506;2022-09-28T04:21:13;143.48;;;28.77;;
55082;SDS011;40978;52.850;6.506;2022-09-28T04:23:40;84.05;;;20.65;;
55082;SDS011;40978;52.850;6.506;2022-09-28T04:26:07;217.18;;;30.10;;
55082;SDS011;40978;52.850;6.506;2022-09-28T04:28:37;144.05;;;21.45;;
55082;SDS011;40978;52.850;6.506;2022-09-28T04:31:22;61.72;;;18.13;;
55082;SDS011;40978;52.850;6.506;2022-09-28T04:33:48;272.02;;;34.08;;
55082;SDS011;40978;52.850;6.506;2022-09-28T04:36:14;21.52;;;17.80;;
55082;SDS011;40978;52.850;6.506;2022-09-28T04:38:40;57.28;;;20.10;;
55082;SDS011;40978;52.850;6.506;2022-09-28T04:41:06;34.40;;;17.55;;
55082;SDS011;40978;52.850;6.506;2022-09-28T04:43:32;49.42;;;19.33;;
55082;SDS011;40978;52.850;6.506;2022-09-28T04:45:58;37.50;;;16.33;;
55082;SDS011;40978;52.850;6.506;2022-09-28T04:48:25;89.07;;;18.52;;
55082;SDS011;40978;52.850;6.506;2022-09-28T04:50:54;65.60;;;15.38;;
55082;SDS011;40978;52.850;6.506;2022-09-28T04:53:21;23.55;;;15.27;;
55082;SDS011;40978;52.850;6.506;2022-09-28T04:55:57;35.72;;;15.55;;
55082;SDS011;40978;52.850;6.506;2022-09-28T04:58:23;29.08;;;15.98;;
55082;SDS011;40978;52.850;6.506;2022-09-28T05:00:49;62.90;;;19.50;;
55082;SDS011;40978;52.850;6.506;2022-09-28T05:03:15;19.67;;;16.63;;
55082;SDS011;40978;52.850;6.506;2022-09-28T05:05:42;38.63;;;15.48;;
55082;SDS011;40978;52.850;6.506;2022-09-28T05:08:09;62.13;;;17.45;;
55082;SDS011;40978;52.850;6.506;2022-09-28T05:10:35;40.80;;;16.95;;
55082;SDS011;40978;52.850;6.506;2022-09-28T05:13:01;47.75;;;16.45;;
55082;SDS011;40978;52.850;6.506;2022-09-28T05:15:26;22.13;;;15.77;;
55082;SDS011;40978;52.850;6.506;2022-09-28T05:17:52;25.83;;;16.08;;
55082;SDS011;40978;52.850;6.506;2022-09-28T05:20:18;25.17;;;14.98;;
55082;SDS011;40978;52.850;6.506;2022-09-28T05:22:43;36.50;;;16.90;;
55082;SDS011;40978;52.850;6.506;2022-09-28T05:25:09;31.38;;;16.92;;
55082;SDS011;40978;52.850;6.506;2022-09-28T05:27:35;60.35;;;17.60;;
55082;SDS011;40978;52.850;6.506;2022-09-28T05:30:00;51.88;;;17.42;;
55082;SDS011;40978;52.850;6.506;2022-09-28T05:32:26;60.33;;;16.83;;
55082;SDS011;40978;52.850;6.506;2022-09-28T05:34:51;48.50;;;17.65;;
55082;SDS011;40978;52.850;6.506;2022-09-28T05:37:19;44.55;;;17.65;;
55082;SDS011;40978;52.850;6.506;2022-09-28T05:39:45;55.78;;;17.63;;
55082;SDS011;40978;52.850;6.506;2022-09-28T05:42:10;58.70;;;20.05;;
55082;SDS011;40978;52.850;6.506;2022-09-28T05:44:36;96.32;;;24.13;;
55082;SDS011;40978;52.850;6.506;2022-09-28T05:47:02;27.88;;;18.55;;
55082;SDS011;40978;52.850;6.506;2022-09-28T05:49:28;36.60;;;18.65;;
55082;SDS011;40978;52.850;6.506;2022-09-28T05:51:55;52.45;;;21.13;;
55082;SDS011;40978;52.850;6.506;2022-09-28T05:54:21;41.50;;;20.15;;
55082;SDS011;40978;52.850;6.506;2022-09-28T05:56:47;37.38;;;19.73;;
55082;SDS011;40978;52.850;6.506;2022-09-28T05:59:12;46.13;;;21.15;;
55082;SDS011;40978;52.850;6.506;2022-09-28T06:01:38;52.60;;;21.35;;
55082;SDS011;40978;52.850;6.506;2022-09-28T06:04:04;28.75;;;18.98;;
55082;SDS011;40978;52.850;6.506;2022-09-28T06:06:30;33.65;;;19.77;;
55082;SDS011;40978;52.850;6.506;2022-09-28T06:08:55;167.32;;;31.60;;
55082;SDS011;40978;52.850;6.506;2022-09-28T06:11:21;52.35;;;21.67;;
55082;SDS011;40978;52.850;6.506;2022-09-28T06:13:52;65.10;;;22.08;;
55082;SDS011;40978;52.850;6.506;2022-09-28T06:16:20;103.22;;;26.42;;
55082;SDS011;40978;52.850;6.506;2022-09-28T06:18:46;103.10;;;25.85;;
55082;SDS011;40978;52.850;6.506;2022-09-28T06:21:12;106.28;;;26.95;;
55082;SDS011;40978;52.850;6.506;2022-09-28T06:23:38;83.88;;;22.38;;
55082;SDS011;40978;52.850;6.506;2022-09-28T06:26:04;97.45;;;26.58;;
55082;SDS011;40978;52.850;6.506;2022-09-28T06:28:29;98.68;;;27.35;;
55082;SDS011;40978;52.850;6.506;2022-09-28T06:30:57;108.30;;;29.05;;
55082;SDS011;40978;52.850;6.506;2022-09-28T06:33:24;158.15;;;31.55;;
55082;SDS011;40978;52.850;6.506;2022-09-28T06:35:51;92.07;;;25.83;;
55082;SDS011;40978;52.850;6.506;2022-09-28T06:38:20;139.52;;;31.15;;
55082;SDS011;40978;52.850;6.506;2022-09-28T06:40:50;83.35;;;23.45;;
55082;SDS011;40978;52.850;6.506;2022-09-28T06:43:23;115.57;;;28.73;;
55082;SDS011;40978;52.850;6.506;2022-09-28T06:45:57;75.85;;;23.88;;
55082;SDS011;40978;52.850;6.506;2022-09-28T06:48:29;104.45;;;28.63;;
55082;SDS011;40978;52.850;6.506;2022-09-28T06:50:57;120.00;;;29.65;;
55082;SDS011;40978;52.850;6.506;2022-09-28T06:53:24;73.50;;;25.38;;
55082;SDS011;40978;52.850;6.506;2022-09-28T06:55:52;44.33;;;22.90;;
55082;SDS011;40978;52.850;6.506;2022-09-28T06:58:19;100.35;;;28.02;;
55082;SDS011;40978;52.850;6.506;2022-09-28T07:00:46;33.70;;;21.50;;
55082;SDS011;40978;52.850;6.506;2022-09-28T07:03:14;43.90;;;23.38;;
55082;SDS011;40978;52.850;6.506;2022-09-28T07:05:45;42.58;;;22.15;;
55082;SDS011;40978;52.850;6.506;2022-09-28T07:08:16;41.10;;;22.48;;
55082;SDS011;40978;52.850;6.506;2022-09-28T07:10:43;42.47;;;21.45;;
55082;SDS011;40978;52.850;6.506;2022-09-28T07:13:10;40.15;;;22.08;;
55082;SDS011;40978;52.850;6.506;2022-09-28T07:15:40;35.67;;;22.23;;
55082;SDS011;40978;52.850;6.506;2022-09-28T07:18:07;42.28;;;23.08;;
55082;SDS011;40978;52.850;6.506;2022-09-28T07:20:35;42.08;;;23.00;;
55082;SDS011;40978;52.850;6.506;2022-09-28T07:23:03;36.22;;;21.85;;
55082;SDS011;40978;52.850;6.506;2022-09-28T07:25:30;39.58;;;21.88;;
55082;SDS011;40978;52.850;6.506;2022-09-28T07:28:00;31.77;;;20.65;;
55082;SDS011;40978;52.850;6.506;2022-09-28T07:30:29;32.20;;;21.23;;
55082;SDS011;40978;52.850;6.506;2022-09-28T07:32:57;29.33;;;19.27;;
55082;SDS011;40978;52.850;6.506;2022-09-28T07:35:24;28.85;;;20.15;;
55082;SDS011;40978;52.850;6.506;2022-09-28T07:37:56;27.42;;;18.08;;
55082;SDS011;40978;52.850;6.506;2022-09-28T07:40:27;23.88;;;18.65;;
55082;SDS011;40978;52.850;6.506;2022-09-28T07:43:12;24.20;;;18.20;;
55082;SDS011;40978;52.850;6.506;2022-09-28T07:45:38;24.30;;;18.05;;
55082;SDS011;40978;52.850;6.506;2022-09-28T07:48:07;23.92;;;18.13;;
55082;SDS011;40978;52.850;6.506;2022-09-28T07:50:33;22.20;;;18.40;;
55082;SDS011;40978;52.850;6.506;2022-09-28T07:52:58;23.48;;;17.98;;
55082;SDS011;40978;52.850;6.506;2022-09-28T07:55:24;19.17;;;15.77;;
55082;SDS011;40978;52.850;6.506;2022-09-28T07:57:56;16.83;;;15.23;;
55082;SDS011;40978;52.850;6.506;2022-09-28T08:00:29;16.98;;;15.18;;
55082;SDS011;40978;52.850;6.506;2022-09-28T08:03:00;16.42;;;14.10;;
55082;SDS011;40978;52.850;6.506;2022-09-28T08:05:27;16.80;;;15.10;;
55082;SDS011;40978;52.850;6.506;2022-09-28T08:07:56;15.35;;;13.77;;
55082;SDS011;40978;52.850;6.506;2022-09-28T08:10:24;15.88;;;13.77;;
55082;SDS011;40978;52.850;6.506;2022-09-28T08:12:57;14.20;;;12.70;;
55082;SDS011;40978;52.850;6.506;2022-09-28T08:15:26;14.38;;;12.98;;
55082;SDS011;40978;52.850;6.506;2022-09-28T08:17:52;15.18;;;13.50;;
55082;SDS011;40978;52.850;6.506;2022-09-28T08:20:18;16.65;;;14.85;;
55082;SDS011;40978;52.850;6.506;2022-09-28T08:23:10;14.23;;;12.73;;
55082;SDS011;40978;52.850;6.506;2022-09-28T08:28:02;14.20;;;12.57;;
55082;SDS011;40978;52.850;6.506;2022-09-28T08:30:30;12.55;;;11.25;;
55082;SDS011;40978;52.850;6.506;2022-09-28T08:32:56;13.48;;;12.07;;
55082;SDS011;40978;52.850;6.506;2022-09-28T08:35:22;14.13;;;12.82;;
55082;SDS011;40978;52.850;6.506;2022-09-28T08:37:49;14.02;;;12.52;;
55082;SDS011;40978;52.850;6.506;2022-09-28T08:40:22;14.10;;;12.70;;
55082;SDS011;40978;52.850;6.506;2022-09-28T08:42:49;14.13;;;12.27;;
55082;SDS011;40978;52.850;6.506;2022-09-28T08:45:26;13.85;;;12.52;;
55082;SDS011;40978;52.850;6.506;2022-09-28T08:51:06;13.38;;;12.00;;
55082;SDS011;40978;52.850;6.506;2022-09-28T08:56:29;12.43;;;11.18;;
55082;SDS011;40978;52.850;6.506;2022-09-28T08:59:01;12.35;;;11.15;;
55082;SDS011;40978;52.850;6.506;2022-09-28T09:01:34;13.02;;;11.13;;
55082;SDS011;40978;52.850;6.506;2022-09-28T09:04:04;11.50;;;10.40;;
55082;SDS011;40978;52.850;6.506;2022-09-28T09:09:24;12.80;;;11.10;;
55082;SDS011;40978;52.850;6.506;2022-09-28T09:14:59;10.48;;;9.48;;
55082;SDS011;40978;52.850;6.506;2022-09-28T09:20:40;9.95;;;8.95;;
55082;SDS011;40978;52.850;6.506;2022-09-28T09:26:12;9.30;;;8.45;;
55082;SDS011;40978;52.850;6.506;2022-09-28T09:37:36;7.90;;;7.10;;
55082;SDS011;40978;52.850;6.506;2022-09-28T09:42:52;7.13;;;6.18;;
55082;SDS011;40978;52.850;6.506;2022-09-28T09:48:20;6.90;;;6.00;;
55082;SDS011;40978;52.850;6.506;2022-09-28T09:50:58;6.82;;;6.20;;
55082;SDS011;40978;52.850;6.506;2022-09-28T09:56:05;5.30;;;4.80;;
55082;SDS011;40978;52.850;6.506;2022-09-28T09:58:52;4.97;;;4.30;;
55082;SDS011;40978;52.850;6.506;2022-09-28T10:01:29;4.90;;;4.40;;
55082;SDS011;40978;52.850;6.506;2022-09-28T10:03:59;4.63;;;4.07;;
55082;SDS011;40978;52.850;6.506;2022-09-28T10:06:33;3.78;;;3.20;;
55082;SDS011;40978;52.850;6.506;2022-09-28T10:09:05;3.10;;;2.70;;
55082;SDS011;40978;52.850;6.506;2022-09-28T10:11:45;3.50;;;3.08;;
55082;SDS011;40978;52.850;6.506;2022-09-28T10:14:16;3.35;;;3.00;;
55082;SDS011;40978;52.850;6.506;2022-09-28T10:16:46;5.65;;;2.85;;
55082;SDS011;40978;52.850;6.506;2022-09-28T10:19:13;5.32;;;2.45;;
55082;SDS011;40978;52.850;6.506;2022-09-28T10:21:43;2.97;;;1.73;;
55082;SDS011;40978;52.850;6.506;2022-09-28T10:24:14;2.70;;;1.65;;
55082;SDS011;40978;52.850;6.506;2022-09-28T10:26:47;2.35;;;1.75;;
55082;SDS011;40978;52.850;6.506;2022-09-28T10:29:24;3.63;;;1.70;;
55082;SDS011;40978;52.850;6.506;2022-09-28T10:31:51;3.60;;;1.48;;
55082;SDS011;40978;52.850;6.506;2022-09-28T10:34:28;2.55;;;1.10;;
55082;SDS011;40978;52.850;6.506;2022-09-28T10:42:00;2.45;;;1.10;;
55082;SDS011;40978;52.850;6.506;2022-09-28T10:44:33;1.33;;;0.70;;
55082;SDS011;40978;52.850;6.506;2022-09-28T10:47:08;1.98;;;1.00;;
55082;SDS011;40978;52.850;6.506;2022-09-28T10:49:40;2.75;;;1.00;;
55082;SDS011;40978;52.850;6.506;2022-09-28T10:52:28;1.83;;;0.82;;
55082;SDS011;40978;52.850;6.506;2022-09-28T11:00:31;1.85;;;0.63;;
55082;SDS011;40978;52.850;6.506;2022-09-28T11:03:01;3.72;;;0.88;;
55082;SDS011;40978;52.850;6.506;2022-09-28T11:05:27;2.03;;;0.60;;
55082;SDS011;40978;52.850;6.506;2022-09-28T11:07:54;2.55;;;0.50;;
55082;SDS011;40978;52.850;6.506;2022-09-28T11:10:28;97.20;;;86.65;;
55082;SDS011;40978;52.850;6.506;2022-09-28T11:12:55;8.75;;;7.82;;
55082;SDS011;40978;52.850;6.506;2022-09-28T11:15:26;3.70;;;1.13;;
55082;SDS011;40978;52.850;6.506;2022-09-28T11:17:54;2.05;;;0.68;;
55082;SDS011;40978;52.850;6.506;2022-09-28T11:22:52;1.65;;;0.52;;
55082;SDS011;40978;52.850;6.506;2022-09-28T11:25:21;2.28;;;0.40;;
55082;SDS011;40978;52.850;6.506;2022-09-28T11:33:06;1.33;;;0.50;;
55082;SDS011;40978;52.850;6.506;2022-09-28T11:44:36;1.42;;;0.30;;
55082;SDS011;40978;52.850;6.506;2022-09-28T11:55:21;0.60;;;0.50;;
55082;SDS011;40978;52.850;6.506;2022-09-28T11:58:02;0.70;;;0.32;;
55082;SDS011;40978;52.850;6.506;2022-09-28T12:00:45;1.52;;;0.63;;
55082;SDS011;40978;52.850;6.506;2022-09-28T12:06:04;2.67;;;0.30;;
55082;SDS011;40978;52.850;6.506;2022-09-28T12:08:39;3.20;;;0.40;;
55082;SDS011;40978;52.850;6.506;2022-09-28T12:11:36;27.08;;;24.45;;
55082;SDS011;40978;52.850;6.506;2022-09-28T12:14:09;2.30;;;0.93;;
55082;SDS011;40978;52.850;6.506;2022-09-28T12:22:21;1.27;;;0.22;;
55082;SDS011;40978;52.850;6.506;2022-09-28T12:24:54;1.33;;;0.20;;
55082;SDS011;40978;52.850;6.506;2022-09-28T12:27:24;1.58;;;0.30;;
55082;SDS011;40978;52.850;6.506;2022-09-28T12:30:05;2.45;;;0.20;;
55082;SDS011;40978;52.850;6.506;2022-09-28T12:35:18;1.17;;;0.28;;
55082;SDS011;40978;52.850;6.506;2022-09-28T12:38:20;2.50;;;0.38;;
55082;SDS011;40978;52.850;6.506;2022-09-28T12:40:55;2.53;;;0.30;;
55082;SDS011;40978;52.850;6.506;2022-09-28T12:51:53;1.50;;;0.30;;
55082;SDS011;40978;52.850;6.506;2022-09-28T13:00:20;1.02;;;0.20;;
55082;SDS011;40978;52.850;6.506;2022-09-28T13:23:20;1.25;;;0.13;;
55082;SDS011;40978;52.850;6.506;2022-09-28T13:28:21;1.27;;;0.10;;
55082;SDS011;40978;52.850;6.506;2022-09-28T13:30:48;2.00;;;0.17;;
55082;SDS011;40978;52.850;6.506;2022-09-28T13:33:28;2.42;;;0.13;;
55082;SDS011;40978;52.850;6.506;2022-09-28T13:36:01;0.70;;;0.10;;
55082;SDS011;40978;52.850;6.506;2022-09-28T13:38:43;1.08;;;0.15;;
55082;SDS011;40978;52.850;6.506;2022-09-28T13:41:12;1.30;;;0.10;;
55082;SDS011;40978;52.850;6.506;2022-09-28T13:43:52;0.20;;;0.03;;
55082;SDS011;40978;52.850;6.506;2022-09-28T13:46:20;1.15;;;0.10;;
55082;SDS011;40978;52.850;6.506;2022-09-28T13:54:25;1.33;;;0.20;;
55082;SDS011;40978;52.850;6.506;2022-09-28T13:57:16;1.67;;;0.28;;
55082;SDS011;40978;52.850;6.506;2022-09-28T13:59:55;3.03;;;0.20;;
55082;SDS011;40978;52.850;6.506;2022-09-28T14:10:53;1.38;;;0.10;;
55082;SDS011;40978;52.850;6.506;2022-09-28T14:16:38;1.00;;;0.10;;
55082;SDS011;40978;52.850;6.506;2022-09-28T14:19:11;0.50;;;0.03;;
55082;SDS011;40978;52.850;6.506;2022-09-28T14:30:54;0.63;;;0.20;;
55082;SDS011;40978;52.850;6.506;2022-09-28T14:33:27;1.33;;;0.28;;
55082;SDS011;40978;52.850;6.506;2022-09-28T14:36:05;1.10;;;0.30;;
55082;SDS011;40978;52.850;6.506;2022-09-28T14:39:16;2.63;;;0.40;;
55082;SDS011;40978;52.850;6.506;2022-09-28T14:42:23;0.75;;;0.15;;
55082;SDS011;40978;52.850;6.506;2022-09-28T14:48:01;1.48;;;0.10;;
55082;SDS011;40978;52.850;6.506;2022-09-28T14:50:30;2.75;;;0.10;;
55082;SDS011;40978;52.850;6.506;2022-09-28T14:52:56;0.85;;;0.10;;
55082;SDS011;40978;52.850;6.506;2022-09-28T14:58:26;2.45;;;0.20;;
55082;SDS011;40978;52.850;6.506;2022-09-28T15:01:01;1.30;;;0.10;;
55082;SDS011;40978;52.850;6.506;2022-09-28T15:03:36;1.42;;;0.20;;
55082;SDS011;40978;52.850;6.506;2022-09-28T15:06:05;1.23;;;0.30;;
55082;SDS011;40978;52.850;6.506;2022-09-28T15:08:34;1.05;;;0.10;;
55082;SDS011;40978;52.850;6.506;2022-09-28T15:11:03;0.43;;;0.17;;
55082;SDS011;40978;52.850;6.506;2022-09-28T15:13:30;2.90;;;0.10;;
55082;SDS011;40978;52.850;6.506;2022-09-28T15:16:02;1.42;;;0.10;;
55082;SDS011;40978;52.850;6.506;2022-09-28T15:18:39;0.98;;;0.03;;
55082;SDS011;40978;52.850;6.506;2022-09-28T15:21:22;0.10;;;0.10;;
55082;SDS011;40978;52.850;6.506;2022-09-28T15:23:55;0.10;;;0.00;;
55082;SDS011;40978;52.850;6.506;2022-09-28T15:26:22;0.20;;;0.00;;
55082;SDS011;40978;52.850;6.506;2022-09-28T15:28:51;0.10;;;0.00;;
55082;SDS011;40978;52.850;6.506;2022-09-28T15:31:19;0.45;;;0.10;;
55082;SDS011;40978;52.850;6.506;2022-09-28T15:33:47;1.23;;;0.40;;
55082;SDS011;40978;52.850;6.506;2022-09-28T15:41:56;1.80;;;0.10;;
55082;SDS011;40978;52.850;6.506;2022-09-28T15:44:30;0.50;;;0.10;;
55082;SDS011;40978;52.850;6.506;2022-09-28T15:47:14;0.70;;;0.10;;
55082;SDS011;40978;52.850;6.506;2022-09-28T15:52:38;1.17;;;0.20;;
55082;SDS011;40978;52.850;6.506;2022-09-28T15:58:03;0.80;;;0.10;;
55082;SDS011;40978;52.850;6.506;2022-09-28T16:00:30;1.35;;;0.10;;
55082;SDS011;40978;52.850;6.506;2022-09-28T16:05:41;0.80;;;0.20;;
55082;SDS011;40978;52.850;6.506;2022-09-28T16:08:36;1.85;;;0.20;;
55082;SDS011;40978;52.850;6.506;2022-09-28T16:13:33;0.40;;;0.10;;
55082;SDS011;40978;52.850;6.506;2022-09-28T16:15:59;0.63;;;0.10;;
55082;SDS011;40978;52.850;6.506;2022-09-28T16:18:26;0.32;;;0.10;;
55082;SDS011;40978;52.850;6.506;2022-09-28T16:20:54;0.43;;;0.10;;
55082;SDS011;40978;52.850;6.506;2022-09-28T16:23:31;1.50;;;0.17;;
55082;SDS011;40978;52.850;6.506;2022-09-28T16:26:06;0.20;;;0.10;;
55082;SDS011;40978;52.850;6.506;2022-09-28T16:33:44;3.65;;;0.22;;
55082;SDS011;40978;52.850;6.506;2022-09-28T16:36:27;2.60;;;0.43;;
55082;SDS011;40978;52.850;6.506;2022-09-28T16:39:02;1.00;;;0.40;;
55082;SDS011;40978;52.850;6.506;2022-09-28T16:41:28;1.98;;;0.77;;
55082;SDS011;40978;52.850;6.506;2022-09-28T16:43:56;0.95;;;0.40;;
55082;SDS011;40978;52.850;6.506;2022-09-28T16:46:34;1.17;;;0.47;;
55082;SDS011;40978;52.850;6.506;2022-09-28T16:49:01;2.10;;;0.32;;
55082;SDS011;40978;52.850;6.506;2022-09-28T16:51:29;0.73;;;0.25;;
55082;SDS011;40978;52.850;6.506;2022-09-28T16:54:00;1.60;;;0.73;;
55082;SDS011;40978;52.850;6.506;2022-09-28T16:56:58;2.78;;;0.60;;
55082;SDS011;40978;52.850;6.506;2022-09-28T16:59:25;0.88;;;0.30;;
55082;SDS011;40978;52.850;6.506;2022-09-28T17:01:50;0.73;;;0.20;;
55082;SDS011;40978;52.850;6.506;2022-09-28T17:04:16;1.38;;;0.40;;
55082;SDS011;40978;52.850;6.506;2022-09-28T17:06:42;0.77;;;0.40;;
55082;SDS011;40978;52.850;6.506;2022-09-28T17:09:10;1.25;;;0.45;;
55082;SDS011;40978;52.850;6.506;2022-09-28T17:11:36;1.15;;;0.47;;
55082;SDS011;40978;52.850;6.506;2022-09-28T17:14:02;2.05;;;0.30;;
55082;SDS011;40978;52.850;6.506;2022-09-28T17:16:28;1.65;;;0.50;;
55082;SDS011;40978;52.850;6.506;2022-09-28T17:18:57;1.10;;;0.40;;
55082;SDS011;40978;52.850;6.506;2022-09-28T17:21:23;0.70;;;0.40;;
55082;SDS011;40978;52.850;6.506;2022-09-28T17:23:49;0.75;;;0.50;;
55082;SDS011;40978;52.850;6.506;2022-09-28T17:26:33;4.35;;;0.60;;
55082;SDS011;40978;52.850;6.506;2022-09-28T17:31:26;2.45;;;0.70;;
55082;SDS011;40978;52.850;6.506;2022-09-28T17:33:53;0.95;;;0.60;;
55082;SDS011;40978;52.850;6.506;2022-09-28T17:36:19;1.48;;;0.82;;
55082;SDS011;40978;52.850;6.506;2022-09-28T17:38:46;3.47;;;1.05;;
55082;SDS011;40978;52.850;6.506;2022-09-28T17:41:13;3.22;;;0.95;;
55082;SDS011;40978;52.850;6.506;2022-09-28T17:43:41;2.22;;;1.20;;
55082;SDS011;40978;52.850;6.506;2022-09-28T17:48:56;1.55;;;0.80;;
55082;SDS011;40978;52.850;6.506;2022-09-28T17:51:27;1.27;;;0.70;;
55082;SDS011;40978;52.850;6.506;2022-09-28T17:53:54;2.58;;;0.80;;
55082;SDS011;40978;52.850;6.506;2022-09-28T17:56:21;2.33;;;1.10;;
55082;SDS011;40978;52.850;6.506;2022-09-28T17:58:47;3.90;;;2.25;;
55082;SDS011;40978;52.850;6.506;2022-09-28T18:01:13;6.25;;;3.53;;
55082;SDS011;40978;52.850;6.506;2022-09-28T18:03:39;3.33;;;2.42;;
55082;SDS011;40978;52.850;6.506;2022-09-28T18:06:06;4.50;;;2.78;;
55082;SDS011;40978;52.850;6.506;2022-09-28T18:08:37;5.28;;;3.08;;
55082;SDS011;40978;52.850;6.506;2022-09-28T18:11:02;3.83;;;2.70;;
55082;SDS011;40978;52.850;6.506;2022-09-28T18:13:28;2.58;;;2.10;;
55082;SDS011;40978;52.850;6.506;2022-09-28T18:15:54;2.97;;;2.05;;
55082;SDS011;40978;52.850;6.506;2022-09-28T18:18:21;2.88;;;1.83;;
55082;SDS011;40978;52.850;6.506;2022-09-28T18:20:47;2.20;;;1.85;;
55082;SDS011;40978;52.850;6.506;2022-09-28T18:23:13;4.32;;;2.63;;